Time,TemperatureF,DewpointF,PressureIn,WindDirection,WindDirectionDegrees,WindSpeedMPH,WindSpeedGustMPH,Humidity,HourlyPrecipIn,Conditions,Clouds,dailyrainin,SoftwareType,DateUTC
2013-02-09 00:00:00,32.8,26.4,30.36,North,358,4.0,4.0,77,0.00,OVC,,0.12,WeatherDisplay:10.37,2013-02-09 05:00:00,
2013-02-09 00:01:00,32.8,26.4,30.36,North,358,3.5,3.5,77,0.00,RA,,0.00,WeatherDisplay:10.37,2013-02-09 05:01:00,
2013-02-09 00:06:00,32.8,26.4,30.35,North,2,6.0,6.0,77,0.00,RA,,0.00,WeatherDisplay:10.37,2013-02-09 05:06:00,
2013-02-09 00:11:00,32.7,26.6,30.36,North,2,1.1,1.1,78,0.00,OVC,,0.00,WeatherDisplay:10.37,2013-02-09 05:11:00,
2013-02-09 00:16:00,32.7,26.6,30.36,North,2,4.0,4.0,78,0.00,OVC,,0.00,WeatherDisplay:10.37,2013-02-09 05:16:00,
2013-02-09 00:21:00,32.7,26.6,30.36,North,2,4.0,4.0,78,0.00,OVC,,0.00,WeatherDisplay:10.37,2013-02-09 05:21:00,
2013-02-09 00:26:00,32.7,26.6,30.36,North,2,2.3,2.3,78,0.00,OVC,,0.00,WeatherDisplay:10.37,2013-02-09 05:26:00,
2013-02-09 00:31:00,32.7,26.6,30.37,NNE,24,7.0,7.0,78,0.00,OVC,,0.00,WeatherDisplay:10.37,2013-02-09 05:31:00,
2013-02-09 00:36:00,32.7,26.6,30.37,NNE,24,3.5,3.5,78,0.00,OVC,,0.00,WeatherDisplay:10.37,2013-02-09 05:36:00,
2013-02-09 00:41:00,32.7,26.6,30.37,NNE,24,3.0,3.0,78,0.00,OVC,,0.00,WeatherDisplay:10.37,2013-02-09 05:41:00,
2013-02-09 00:46:00,32.6,26.2,30.37,NNE,24,2.3,2.3,77,0.00,OVC,,0.00,WeatherDisplay:10.37,2013-02-09 05:46:00,
2013-02-09 00:51:00,32.7,26.3,30.37,NNE,24,2.0,2.0,77,0.00,OVC,,0.00,WeatherDisplay:10.37,2013-02-09 05:51:00,
2013-02-09 00:56:00,32.7,26.6,30.37,NNE,24,2.3,2.3,78,0.00,OVC,,0.00,WeatherDisplay:10.37,2013-02-09 05:56:00,
2013-02-09 01:01:00,32.6,26.5,30.37,NNE,24,3.5,3.5,78,0.00,OVC,,0.00,WeatherDisplay:10.37,2013-02-09 06:01:00,
2013-02-09 01:06:00,32.6,26.5,30.37,NNE,24,3.5,3.5,78,0.00,OVC,,0.00,WeatherDisplay:10.37,2013-02-09 06:06:00,
2013-02-09 01:11:00,32.6,26.5,30.37,NNE,24,1.1,0.0,78,0.00,OVC,,0.00,WeatherDisplay:10.37,2013-02-09 06:11:00,
2013-02-09 01:16:00,32.6,26.5,30.37,NNE,24,0.0,0.0,78,0.00,OVC,,0.00,WeatherDisplay:10.37,2013-02-09 06:16:00,
2013-02-09 01:21:00,32.6,26.5,30.37,NNE,24,0.0,0.0,78,0.00,OVC,,0.00,WeatherDisplay:10.37,2013-02-09 06:21:00,
2013-02-09 01:26:00,32.6,26.8,30.37,NNE,24,0.0,0.0,79,0.00,OVC,,0.00,WeatherDisplay:10.37,2013-02-09 06:26:00,
2013-02-09 01:31:00,32.5,26.7,30.37,NNE,24,1.0,0.0,79,0.00,OVC,,0.00,WeatherDisplay:10.37,2013-02-09 06:31:00,
2013-02-09 01:36:00,32.5,26.7,30.37,NNE,24,3.5,3.5,79,0.00,OVC,,0.00,WeatherDisplay:10.37,2013-02-09 06:36:00,
2013-02-09 01:41:00,32.5,26.7,30.37,NNE,24,1.1,0.0,79,0.00,OVC,,0.00,WeatherDisplay:10.37,2013-02-09 06:41:00,
2013-02-09 01:46:00,32.5,26.7,30.37,NNE,24,4.0,4.0,79,0.00,OVC,,0.00,WeatherDisplay:10.37,2013-02-09 06:46:00,
2013-02-09 01:51:00,32.5,26.7,30.37,NNE,24,1.1,1.1,79,0.00,OVC,,0.00,WeatherDisplay:10.37,2013-02-09 06:51:00,
2013-02-09 01:56:00,32.4,26.3,30.37,NNE,24,3.0,3.0,78,0.00,OVC,,0.00,WeatherDisplay:10.37,2013-02-09 06:56:00,
2013-02-09 02:01:00,32.1,25.7,30.38,NNE,25,6.0,6.0,77,0.00,OVC,,0.00,WeatherDisplay:10.37,2013-02-09 07:01:00,
2013-02-09 02:06:00,32.0,24.3,30.38,NNE,27,4.6,4.6,73,0.00,OVC,,0.00,WeatherDisplay:10.37,2013-02-09 07:06:00,
2013-02-09 02:11:00,31.9,23.9,30.38,NNE,26,5.0,5.0,72,0.00,OVC,,0.00,WeatherDisplay:10.37,2013-02-09 07:11:00,
2013-02-09 02:16:00,31.9,23.6,30.38,NNE,26,2.3,2.3,71,0.00,OVC,,0.00,WeatherDisplay:10.37,2013-02-09 07:16:00,
2013-02-09 02:21:00,31.8,23.5,30.38,NE,40,5.8,5.8,71,0.00,OVC,,0.00,WeatherDisplay:10.37,2013-02-09 07:21:00,
2013-02-09 02:26:00,31.7,23.0,30.37,NE,41,2.3,2.3,70,0.00,OVC,,0.00,WeatherDisplay:10.37,2013-02-09 07:26:00,
2013-02-09 02:31:00,31.7,23.0,30.38,NE,41,2.3,2.3,70,0.00,OVC,,0.00,WeatherDisplay:10.37,2013-02-09 07:31:00,
2013-02-09 02:36:00,31.7,23.0,30.38,NE,41,3.5,3.5,70,0.00,OVC,,0.00,WeatherDisplay:10.37,2013-02-09 07:36:00,
2013-02-09 02:41:00,31.6,22.9,30.38,NE,42,5.0,5.0,70,0.00,OVC,,0.00,WeatherDisplay:10.37,2013-02-09 07:41:00,
2013-02-09 02:46:00,31.6,22.6,30.38,NE,42,4.0,4.0,69,0.00,OVC,,0.00,WeatherDisplay:10.37,2013-02-09 07:46:00,
2013-02-09 02:51:00,31.6,22.9,30.39,NE,41,5.0,5.0,70,0.00,OVC,,0.00,WeatherDisplay:10.37,2013-02-09 07:51:00,
2013-02-09 02:56:00,31.5,22.5,30.39,NE,55,6.0,6.0,69,0.00,OVC,,0.00,WeatherDisplay:10.37,2013-02-09 07:56:00,
2013-02-09 03:01:00,31.5,22.5,30.39,ENE,58,5.0,5.0,69,0.00,OVC,,0.00,WeatherDisplay:10.37,2013-02-09 08:01:00,
2013-02-09 03:06:00,31.5,22.8,30.39,NE,55,4.0,4.0,70,0.00,OVC,,0.00,WeatherDisplay:10.37,2013-02-09 08:06:00,
2013-02-09 03:11:00,31.4,22.7,30.39,ENE,59,6.0,6.0,70,0.00,OVC,,0.00,WeatherDisplay:10.37,2013-02-09 08:11:00,
2013-02-09 03:16:00,31.3,22.6,30.39,ENE,60,4.6,4.6,70,0.00,OVC,,0.00,WeatherDisplay:10.37,2013-02-09 08:16:00,
2013-02-09 03:21:00,31.2,22.5,30.40,ENE,61,5.0,5.0,70,0.00,OVC,,0.00,WeatherDisplay:10.37,2013-02-09 08:21:00,
2013-02-09 03:26:00,31.2,22.5,30.40,ENE,60,4.0,4.0,70,0.00,OVC,,0.00,WeatherDisplay:10.37,2013-02-09 08:26:00,
2013-02-09 03:31:00,31.1,22.5,30.40,ENE,60,3.5,3.5,70,0.00,OVC,,0.00,WeatherDisplay:10.37,2013-02-09 08:31:00,
2013-02-09 03:36:00,31.1,22.5,30.40,ENE,61,4.0,4.0,70,0.00,OVC,,0.00,WeatherDisplay:10.37,2013-02-09 08:36:00,
2013-02-09 03:41:00,31.0,22.4,30.40,ENE,62,2.3,2.3,70,0.00,OVC,,0.00,WeatherDisplay:10.37,2013-02-09 08:41:00,
2013-02-09 03:46:00,31.0,22.4,30.40,ENE,62,1.1,0.0,70,0.00,OVC,,0.00,WeatherDisplay:10.37,2013-02-09 08:46:00,
2013-02-09 03:51:00,31.0,22.7,30.40,ENE,62,3.5,3.5,71,0.00,OVC,,0.00,WeatherDisplay:10.37,2013-02-09 08:51:00,
2013-02-09 03:56:00,30.9,22.6,30.40,ENE,67,5.0,5.0,71,0.00,OVC,,0.00,WeatherDisplay:10.37,2013-02-09 08:56:00,
2013-02-09 04:01:00,30.7,22.1,30.40,ENE,68,5.0,5.0,70,0.00,OVC,,0.00,WeatherDisplay:10.37,2013-02-09 09:01:00,
2013-02-09 04:06:00,30.6,22.3,30.40,ENE,68,4.0,4.0,71,0.00,OVC,,0.00,WeatherDisplay:10.37,2013-02-09 09:06:00,
2013-02-09 04:11:00,30.4,21.8,30.40,ENE,70,3.5,3.5,70,0.00,OVC,,0.00,WeatherDisplay:10.37,2013-02-09 09:11:00,
2013-02-09 04:16:00,30.3,21.3,30.41,ENE,69,5.0,5.0,69,0.00,OVC,,0.00,WeatherDisplay:10.37,2013-02-09 09:16:00,
2013-02-09 04:21:00,30.1,21.2,30.41,ENE,69,0.0,0.0,69,0.00,OVC,,0.00,WeatherDisplay:10.37,2013-02-09 09:21:00,
2013-02-09 04:26:00,30.0,21.1,30.40,ENE,69,3.5,3.5,69,0.00,OVC,,0.00,WeatherDisplay:10.37,2013-02-09 09:26:00,
2013-02-09 04:31:00,29.9,21.0,30.41,ENE,69,2.3,2.3,69,0.00,OVC,,0.00,WeatherDisplay:10.37,2013-02-09 09:31:00,
2013-02-09 04:36:00,29.7,20.8,30.40,ENE,68,2.3,2.3,69,0.00,OVC,,0.00,WeatherDisplay:10.37,2013-02-09 09:36:00,
2013-02-09 04:41:00,29.5,20.6,30.40,ENE,69,2.0,2.0,69,0.00,OVC,,0.00,WeatherDisplay:10.37,2013-02-09 09:41:00,
2013-02-09 04:46:00,29.3,20.7,30.40,ENE,70,4.0,4.0,70,0.00,OVC,,0.00,WeatherDisplay:10.37,2013-02-09 09:46:00,
2013-02-09 04:51:00,29.2,20.6,30.40,ENE,70,1.1,1.1,70,0.00,OVC,,0.00,WeatherDisplay:10.37,2013-02-09 09:51:00,
2013-02-09 04:56:00,29.0,20.4,30.40,ENE,70,1.1,1.1,70,0.00,OVC,,0.00,WeatherDisplay:10.37,2013-02-09 09:56:00,
2013-02-09 05:01:00,28.8,20.6,30.40,ENE,70,3.5,3.5,71,0.00,OVC,,0.00,WeatherDisplay:10.37,2013-02-09 10:01:00,
2013-02-09 05:06:00,28.7,20.5,30.40,ENE,70,2.0,2.0,71,0.00,OVC,,0.00,WeatherDisplay:10.37,2013-02-09 10:06:00,
2013-02-09 05:11:00,28.6,20.4,30.40,ENE,70,4.0,4.0,71,0.00,OVC,,0.00,WeatherDisplay:10.37,2013-02-09 10:11:00,
2013-02-09 05:16:00,28.5,20.3,30.40,ENE,70,2.0,2.0,71,0.00,OVC,,0.00,WeatherDisplay:10.37,2013-02-09 10:16:00,
2013-02-09 05:21:00,28.4,20.2,30.40,ENE,70,1.1,0.0,71,0.00,OVC,,0.00,WeatherDisplay:10.37,2013-02-09 10:21:00,
2013-02-09 05:26:00,28.2,20.3,30.40,ENE,70,0.0,0.0,72,0.00,OVC,,0.00,WeatherDisplay:10.37,2013-02-09 10:26:00,
2013-02-09 05:31:00,28.0,20.1,30.40,ENE,70,0.0,0.0,72,0.00,OVC,,0.00,WeatherDisplay:10.37,2013-02-09 10:31:00,
2013-02-09 05:36:00,27.9,20.0,30.41,ENE,70,0.0,0.0,72,0.00,OVC,,0.00,WeatherDisplay:10.37,2013-02-09 10:36:00,
2013-02-09 05:41:00,27.8,19.9,30.41,ENE,70,0.0,0.0,72,0.00,OVC,,0.00,WeatherDisplay:10.37,2013-02-09 10:41:00,
2013-02-09 05:46:00,27.8,19.9,30.42,ENE,70,0.0,0.0,72,0.00,OVC,,0.00,WeatherDisplay:10.37,2013-02-09 10:46:00,
2013-02-09 05:51:00,27.7,20.2,30.42,ENE,70,0.0,0.0,73,0.00,OVC,,0.00,WeatherDisplay:10.37,2013-02-09 10:51:00,
2013-02-09 05:56:00,27.6,20.1,30.42,ENE,70,0.0,0.0,73,0.00,OVC,,0.00,WeatherDisplay:10.37,2013-02-09 10:56:00,
2013-02-09 06:01:00,27.5,20.0,30.42,ENE,70,0.0,0.0,73,0.00,CLR,,0.00,WeatherDisplay:10.37,2013-02-09 11:01:00,
2013-02-09 06:06:00,27.4,19.9,30.42,ENE,70,0.0,0.0,73,0.00,CLR,,0.00,WeatherDisplay:10.37,2013-02-09 11:06:00,
2013-02-09 06:11:00,27.2,19.7,30.42,ENE,70,0.0,0.0,73,0.00,CLR,,0.00,WeatherDisplay:10.37,2013-02-09 11:11:00,
2013-02-09 06:16:00,27.2,19.7,30.42,ENE,70,0.0,0.0,73,0.00,CLR,,0.00,WeatherDisplay:10.37,2013-02-09 11:16:00,
2013-02-09 06:21:00,27.2,20.0,30.42,ENE,70,0.0,0.0,74,0.00,CLR,,0.00,WeatherDisplay:10.37,2013-02-09 11:21:00,
2013-02-09 06:26:00,27.0,19.8,30.42,ENE,70,0.0,0.0,74,0.00,CLR,,0.00,WeatherDisplay:10.37,2013-02-09 11:26:00,
2013-02-09 06:31:00,26.9,19.7,30.42,ENE,70,0.0,0.0,74,0.00,CLR,,0.00,WeatherDisplay:10.37,2013-02-09 11:31:00,
2013-02-09 06:36:00,26.8,19.6,30.42,ENE,70,0.0,0.0,74,0.00,CLR,,0.00,WeatherDisplay:10.37,2013-02-09 11:36:00,
2013-02-09 06:41:00,26.7,19.5,30.42,ENE,70,0.0,0.0,74,0.00,CLR,,0.00,WeatherDisplay:10.37,2013-02-09 11:41:00,
2013-02-09 06:46:00,26.7,19.5,30.42,ENE,70,0.0,0.0,74,0.00,CLR,,0.00,WeatherDisplay:10.37,2013-02-09 11:46:00,
2013-02-09 06:51:00,26.7,19.5,30.42,ENE,70,1.1,1.1,74,0.00,CLR,,0.00,WeatherDisplay:10.37,2013-02-09 11:51:00,
2013-02-09 06:56:00,26.7,19.5,30.42,ENE,70,1.1,1.1,74,0.00,CLR,,0.00,WeatherDisplay:10.37,2013-02-09 11:56:00,
2013-02-09 07:01:00,26.6,19.7,30.42,ENE,70,2.3,2.3,75,0.00,CLR,,0.00,WeatherDisplay:10.37,2013-02-09 12:01:00,
2013-02-09 07:06:00,26.6,19.4,30.43,ENE,70,0.0,0.0,74,0.00,CLR,,0.00,WeatherDisplay:10.37,2013-02-09 12:06:00,
2013-02-09 07:11:00,26.5,19.3,30.43,ENE,70,1.1,0.0,74,0.00,CLR,,0.00,WeatherDisplay:10.37,2013-02-09 12:11:00,
2013-02-09 07:16:00,26.4,19.5,30.43,ENE,70,1.1,1.1,75,0.00,CLR,,0.00,WeatherDisplay:10.37,2013-02-09 12:16:00,
2013-02-09 07:21:00,26.5,19.6,30.44,ENE,70,2.3,2.3,75,0.00,CLR,,0.00,WeatherDisplay:10.37,2013-02-09 12:21:00,
2013-02-09 07:26:00,26.5,19.3,30.44,ENE,70,0.0,0.0,74,0.00,CLR,,0.00,WeatherDisplay:10.37,2013-02-09 12:26:00,
2013-02-09 07:31:00,26.4,19.2,30.44,ENE,70,1.1,0.0,74,0.00,CLR,,0.00,WeatherDisplay:10.37,2013-02-09 12:31:00,
2013-02-09 07:36:00,26.3,19.5,30.44,ENE,70,0.0,0.0,75,0.00,CLR,,0.00,WeatherDisplay:10.37,2013-02-09 12:36:00,
2013-02-09 07:41:00,26.2,19.4,30.44,ENE,70,0.0,0.0,75,0.00,CLR,,0.00,WeatherDisplay:10.37,2013-02-09 12:41:00,
2013-02-09 07:46:00,26.1,19.3,30.44,ENE,70,1.0,0.0,75,0.00,CLR,,0.00,WeatherDisplay:10.37,2013-02-09 12:46:00,
2013-02-09 07:51:00,26.1,19.3,30.44,ENE,70,1.1,1.1,75,0.00,CLR,,0.00,WeatherDisplay:10.37,2013-02-09 12:51:00,
2013-02-09 07:56:00,26.2,19.4,30.44,ENE,70,2.3,2.3,75,0.00,CLR,,0.00,WeatherDisplay:10.37,2013-02-09 12:56:00,
2013-02-09 08:01:00,26.4,19.5,30.44,ENE,70,1.1,1.1,75,0.00,CLR,,0.00,WeatherDisplay:10.37,2013-02-09 13:01:00,
2013-02-09 08:06:00,26.6,19.7,30.45,ENE,70,0.0,0.0,75,0.00,CLR,,0.00,WeatherDisplay:10.37,2013-02-09 13:06:00,
2013-02-09 08:11:00,26.7,19.8,30.45,ENE,70,4.0,4.0,75,0.00,CLR,,0.00,WeatherDisplay:10.37,2013-02-09 13:11:00,
2013-02-09 08:16:00,26.9,20.0,30.45,ENE,77,2.0,2.0,75,0.00,CLR,,0.00,WeatherDisplay:10.37,2013-02-09 13:16:00,
2013-02-09 08:21:00,27.0,20.1,30.44,East,99,4.6,4.6,75,0.00,CLR,,0.00,WeatherDisplay:10.37,2013-02-09 13:21:00,
2013-02-09 08:26:00,27.2,20.3,30.44,East,99,4.0,4.0,75,0.00,CLR,,0.00,WeatherDisplay:10.37,2013-02-09 13:26:00,
2013-02-09 08:31:00,27.2,20.0,30.44,East,100,5.0,5.0,74,0.00,CLR,,0.00,WeatherDisplay:10.37,2013-02-09 13:31:00,
2013-02-09 08:36:00,27.3,20.1,30.45,ESE,112,2.3,2.3,74,0.00,CLR,,0.00,WeatherDisplay:10.37,2013-02-09 13:36:00,
2013-02-09 08:41:00,27.4,20.2,30.45,ESE,114,4.6,4.6,74,0.00,CLR,,0.00,WeatherDisplay:10.37,2013-02-09 13:41:00,
2013-02-09 08:46:00,27.5,20.3,30.45,ESE,117,3.5,3.5,74,0.00,CLR,,0.00,WeatherDisplay:10.37,2013-02-09 13:46:00,
2013-02-09 08:51:00,27.6,20.1,30.46,ESE,118,2.3,2.3,73,0.00,CLR,,0.00,WeatherDisplay:10.37,2013-02-09 13:51:00,
2013-02-09 08:56:00,27.7,19.8,30.46,ESE,114,2.3,2.3,72,0.00,CLR,,0.00,WeatherDisplay:10.37,2013-02-09 13:56:00,
2013-02-09 09:01:00,27.8,19.6,30.47,ESE,105,3.5,3.5,71,0.00,CLR,,0.00,WeatherDisplay:10.37,2013-02-09 14:01:00,
2013-02-09 09:06:00,27.9,19.7,30.47,ESE,105,3.5,0.0,71,0.00,CLR,,0.00,WeatherDisplay:10.37,2013-02-09 14:06:00,
2013-02-09 09:11:00,28.1,19.9,30.47,ESE,104,4.0,4.0,71,0.00,CLR,,0.00,WeatherDisplay:10.37,2013-02-09 14:11:00,
2013-02-09 09:16:00,28.3,19.8,30.47,ESE,103,3.5,3.5,70,0.00,CLR,,0.00,WeatherDisplay:10.37,2013-02-09 14:16:00,
2013-02-09 09:21:00,28.3,19.8,30.47,ESE,103,2.3,2.3,70,0.00,CLR,,0.00,WeatherDisplay:10.37,2013-02-09 14:21:00,
2013-02-09 09:26:00,28.5,20.0,30.47,East,99,4.0,4.0,70,0.00,CLR,,0.00,WeatherDisplay:10.37,2013-02-09 14:26:00,
2013-02-09 09:31:00,28.8,20.2,30.47,East,101,4.0,4.0,70,0.00,CLR,,0.00,WeatherDisplay:10.37,2013-02-09 14:31:00,
2013-02-09 09:36:00,29.1,20.2,30.46,ESE,102,4.0,4.0,69,0.00,CLR,,0.00,WeatherDisplay:10.37,2013-02-09 14:36:00,
2013-02-09 09:41:00,29.5,20.6,30.47,ESE,109,4.6,4.6,69,0.00,CLR,,0.00,WeatherDisplay:10.37,2013-02-09 14:41:00,
2013-02-09 09:46:00,30.0,20.7,30.46,ESE,105,5.0,5.0,68,0.00,CLR,,0.00,WeatherDisplay:10.37,2013-02-09 14:46:00,
2013-02-09 09:51:00,30.2,20.9,30.46,ESE,103,4.0,4.0,68,0.00,CLR,,0.00,WeatherDisplay:10.37,2013-02-09 14:51:00,
2013-02-09 09:56:00,30.5,20.8,30.46,NE,55,3.5,3.5,67,0.00,CLR,,0.00,WeatherDisplay:10.37,2013-02-09 14:56:00,
2013-02-09 10:01:00,30.6,20.9,30.45,ENE,74,10.0,10.0,67,0.00,CLR,,0.00,WeatherDisplay:10.37,2013-02-09 15:01:00,
2013-02-09 10:06:00,30.8,21.1,30.45,East,101,5.0,5.0,67,0.00,CLR,,0.00,WeatherDisplay:10.37,2013-02-09 15:06:00,
2013-02-09 10:11:00,31.0,21.3,30.45,ENE,64,3.5,3.5,67,0.00,CLR,,0.00,WeatherDisplay:10.37,2013-02-09 15:11:00,
2013-02-09 10:16:00,31.4,21.3,30.45,East,85,7.0,7.0,66,0.00,CLR,,0.00,WeatherDisplay:10.37,2013-02-09 15:16:00,
2013-02-09 10:21:00,31.7,22.0,30.45,East,93,1.1,1.1,67,0.00,CLR,,0.00,WeatherDisplay:10.37,2013-02-09 15:21:00,
2013-02-09 10:26:00,32.2,22.1,30.44,East,82,3.5,3.5,66,0.00,CLR,,0.00,WeatherDisplay:10.37,2013-02-09 15:26:00,
2013-02-09 10:31:00,32.5,22.0,30.44,SSE,153,4.0,4.0,65,0.00,CLR,,0.00,WeatherDisplay:10.37,2013-02-09 15:31:00,
2013-02-09 10:36:00,32.7,22.2,30.44,South,174,2.3,2.3,65,0.00,CLR,,0.00,WeatherDisplay:10.37,2013-02-09 15:36:00,
2013-02-09 10:41:00,33.0,22.5,30.44,SSE,164,3.5,3.5,65,0.00,CLR,,0.00,WeatherDisplay:10.37,2013-02-09 15:41:00,
2013-02-09 10:46:00,33.4,22.5,30.44,SSE,154,4.0,4.0,64,0.00,CLR,,0.00,WeatherDisplay:10.37,2013-02-09 15:46:00,
2013-02-09 10:51:00,33.4,22.5,30.44,SSE,160,4.0,4.0,64,0.00,CLR,,0.00,WeatherDisplay:10.37,2013-02-09 15:51:00,
2013-02-09 10:56:00,33.9,22.6,30.44,SSE,160,4.6,4.6,63,0.00,CLR,,0.00,WeatherDisplay:10.37,2013-02-09 15:56:00,
2013-02-09 11:01:00,34.4,23.1,30.45,SSE,162,4.0,4.0,63,0.00,CLR,,0.00,WeatherDisplay:10.37,2013-02-09 16:01:00,
2013-02-09 11:06:00,34.7,23.0,30.45,SSE,164,5.0,5.0,62,0.00,CLR,,0.00,WeatherDisplay:10.37,2013-02-09 16:06:00,
2013-02-09 11:11:00,35.0,23.3,30.45,South,185,5.0,5.0,62,0.00,CLR,,0.00,WeatherDisplay:10.37,2013-02-09 16:11:00,
2013-02-09 11:16:00,35.1,23.0,30.45,South,185,4.0,4.0,61,0.00,CLR,,0.00,WeatherDisplay:10.37,2013-02-09 16:16:00,
2013-02-09 11:21:00,34.8,22.3,30.45,SE,140,5.0,5.0,60,0.00,CLR,,0.00,WeatherDisplay:10.37,2013-02-09 16:21:00,
2013-02-09 11:26:00,35.0,22.5,30.45,SE,139,3.5,3.5,60,0.00,CLR,,0.00,WeatherDisplay:10.37,2013-02-09 16:26:00,
2013-02-09 11:31:00,35.5,23.4,30.45,SSE,160,1.1,1.1,61,0.00,CLR,,0.00,WeatherDisplay:10.37,2013-02-09 16:31:00,
2013-02-09 11:36:00,35.8,22.9,30.45,SSE,166,2.0,2.0,59,0.00,CLR,,0.00,WeatherDisplay:10.37,2013-02-09 16:36:00,
2013-02-09 11:41:00,36.2,22.8,30.45,South,169,6.0,6.0,58,0.00,CLR,,0.00,WeatherDisplay:10.37,2013-02-09 16:41:00,
2013-02-09 11:46:00,36.8,23.4,30.45,SSE,168,2.0,2.0,58,0.00,CLR,,0.00,WeatherDisplay:10.37,2013-02-09 16:46:00,
2013-02-09 11:51:00,37.0,22.7,30.45,SSE,168,1.1,1.1,56,0.00,CLR,,0.00,WeatherDisplay:10.37,2013-02-09 16:51:00,
2013-02-09 11:56:00,37.3,23.4,30.45,SSE,168,4.0,4.0,57,0.00,CLR,,0.00,WeatherDisplay:10.37,2013-02-09 16:56:00,
2013-02-09 12:01:00,37.4,23.1,30.44,SSE,148,4.0,4.0,56,0.00,CLR,,0.00,WeatherDisplay:10.37,2013-02-09 17:01:00,
2013-02-09 12:06:00,37.7,23.0,30.44,SSE,148,4.6,4.6,55,0.00,CLR,,0.00,WeatherDisplay:10.37,2013-02-09 17:06:00,
2013-02-09 12:11:00,38.1,23.8,30.44,SSE,159,4.0,4.0,56,0.00,CLR,,0.00,WeatherDisplay:10.37,2013-02-09 17:11:00,
2013-02-09 12:16:00,38.4,23.6,30.44,SSE,164,5.0,5.0,55,0.00,CLR,,0.00,WeatherDisplay:10.37,2013-02-09 17:16:00,
2013-02-09 12:21:00,38.5,22.8,30.43,SSE,164,3.5,3.5,53,0.00,CLR,,0.00,WeatherDisplay:10.37,2013-02-09 17:21:00,
2013-02-09 12:26:00,38.2,22.6,30.43,SSE,159,6.0,6.0,53,0.00,CLR,,0.00,WeatherDisplay:10.37,2013-02-09 17:26:00,
2013-02-09 12:31:00,38.2,22.6,30.43,SSE,162,4.6,4.6,53,0.00,CLR,,0.00,WeatherDisplay:10.37,2013-02-09 17:31:00,
2013-02-09 12:36:00,38.4,22.7,30.43,SSE,162,2.0,2.0,53,0.00,CLR,,0.00,WeatherDisplay:10.37,2013-02-09 17:36:00,
2013-02-09 12:41:00,38.4,22.7,30.42,SSE,153,5.0,5.0,53,0.00,CLR,,0.00,WeatherDisplay:10.37,2013-02-09 17:41:00,
2013-02-09 12:46:00,38.0,22.4,30.42,ENE,65,0.0,0.0,53,0.00,CLR,,0.00,WeatherDisplay:10.37,2013-02-09 17:46:00,
2013-02-09 12:51:00,38.4,22.3,30.42,ENE,66,3.5,0.0,52,0.00,CLR,,0.00,WeatherDisplay:10.37,2013-02-09 17:51:00,
2013-02-09 12:56:00,38.9,23.7,30.42,ENE,66,1.0,0.0,54,0.00,CLR,,0.00,WeatherDisplay:10.37,2013-02-09 17:56:00,
2013-02-09 13:01:00,39.3,23.1,30.42,ENE,70,3.5,3.5,52,0.00,CLR,,0.00,WeatherDisplay:10.37,2013-02-09 18:01:00,
2013-02-09 13:06:00,40.3,23.1,30.42,SSE,162,5.0,5.0,50,0.00,CLR,,0.00,WeatherDisplay:10.37,2013-02-09 18:06:00,
2013-02-09 13:11:00,40.2,22.1,30.42,SSE,162,0.0,0.0,48,0.00,CLR,,0.00,WeatherDisplay:10.37,2013-02-09 18:11:00,
2013-02-09 13:16:00,40.4,23.2,30.41,SSE,160,2.3,2.3,50,0.00,CLR,,0.00,WeatherDisplay:10.37,2013-02-09 18:16:00,
2013-02-09 13:21:00,41.0,22.8,30.41,SSE,161,1.1,1.1,48,0.00,CLR,,0.00,WeatherDisplay:10.37,2013-02-09 18:21:00,
2013-02-09 13:26:00,41.5,22.7,30.41,SSE,162,5.0,5.0,47,0.00,CLR,,0.00,WeatherDisplay:10.37,2013-02-09 18:26:00,
2013-02-09 13:31:00,42.1,22.8,30.41,South,173,4.6,4.6,46,0.00,CLR,,0.00,WeatherDisplay:10.37,2013-02-09 18:31:00,
2013-02-09 13:36:00,42.5,23.2,30.41,South,190,4.6,4.6,46,0.00,CLR,,0.00,WeatherDisplay:10.37,2013-02-09 18:36:00,
2013-02-09 13:41:00,42.1,22.8,30.41,South,191,2.3,0.0,46,0.00,CLR,,0.00,WeatherDisplay:10.37,2013-02-09 18:41:00,
2013-02-09 13:46:00,42.2,22.4,30.40,SSE,160,5.0,5.0,45,0.00,CLR,,0.00,WeatherDisplay:10.37,2013-02-09 18:46:00,
2013-02-09 13:51:00,41.6,21.8,30.40,SE,133,2.3,2.3,45,0.00,CLR,,0.00,WeatherDisplay:10.37,2013-02-09 18:51:00,
2013-02-09 13:56:00,41.9,22.1,30.40,ESE,123,2.3,2.3,45,0.00,CLR,,0.00,WeatherDisplay:10.37,2013-02-09 18:56:00,
2013-02-09 14:01:00,42.6,22.2,30.39,SE,129,1.1,1.1,44,0.00,CLR,,0.00,WeatherDisplay:10.37,2013-02-09 19:01:00,
2013-02-09 14:06:00,42.9,21.4,30.39,SE,129,5.8,5.8,42,0.00,CLR,,0.00,WeatherDisplay:10.37,2013-02-09 19:06:00,
2013-02-09 14:11:00,43.0,22.0,30.38,SE,135,4.0,4.0,43,0.00,CLR,,0.00,WeatherDisplay:10.37,2013-02-09 19:11:00,
2013-02-09 14:17:00,43.6,22.0,30.38,SE,139,3.5,3.5,42,0.00,CLR,,0.00,WeatherDisplay:10.37,2013-02-09 19:17:00,
2013-02-09 14:22:00,44.1,23.6,30.38,SE,139,1.1,1.1,44,0.00,CLR,,0.00,WeatherDisplay:10.37,2013-02-09 19:22:00,
2013-02-09 14:27:00,44.4,22.7,30.38,SE,139,2.3,2.3,42,0.00,CLR,,0.00,WeatherDisplay:10.37,2013-02-09 19:27:00,
2013-02-09 14:32:00,44.5,22.8,30.37,SSE,148,5.0,5.0,42,0.00,CLR,,0.00,WeatherDisplay:10.37,2013-02-09 19:32:00,
2013-02-09 14:37:00,44.9,23.2,30.37,SSE,151,5.0,5.0,42,0.00,CLR,,0.00,WeatherDisplay:10.37,2013-02-09 19:37:00,
2013-02-09 14:42:00,45.0,22.7,30.37,SSE,151,4.0,4.0,41,0.00,CLR,,0.00,WeatherDisplay:10.37,2013-02-09 19:42:00,
2013-02-09 14:47:00,45.5,23.1,30.37,SSE,155,2.3,2.3,41,0.00,CLR,,0.00,WeatherDisplay:10.37,2013-02-09 19:47:00,
2013-02-09 14:52:00,44.6,21.7,30.37,ENE,61,5.0,5.0,40,0.00,CLR,,0.00,WeatherDisplay:10.37,2013-02-09 19:52:00,
2013-02-09 14:57:00,44.4,22.1,30.37,SSE,147,7.0,7.0,41,0.00,CLR,,0.00,WeatherDisplay:10.37,2013-02-09 19:57:00,
2013-02-09 15:02:00,44.7,21.8,30.36,East,81,4.6,4.6,40,0.00,CLR,,0.00,WeatherDisplay:10.37,2013-02-09 20:02:00,
2013-02-09 15:07:00,45.1,22.8,30.36,East,86,2.3,2.3,41,0.00,CLR,,0.00,WeatherDisplay:10.37,2013-02-09 20:07:00,
2013-02-09 15:12:00,45.7,23.3,30.36,East,95,3.0,3.0,41,0.00,CLR,,0.00,WeatherDisplay:10.37,2013-02-09 20:12:00,
2013-02-09 15:17:00,46.0,23.0,30.36,SE,133,6.0,6.0,40,0.00,CLR,,0.00,WeatherDisplay:10.37,2013-02-09 20:17:00,
2013-02-09 15:22:00,45.6,22.6,30.36,SSE,155,2.3,2.3,40,0.00,CLR,,0.00,WeatherDisplay:10.37,2013-02-09 20:22:00,
2013-02-09 15:27:00,45.4,22.5,30.36,SSE,155,2.3,2.3,40,0.00,CLR,,0.00,WeatherDisplay:10.37,2013-02-09 20:27:00,
2013-02-09 15:32:00,45.2,22.3,30.36,SE,146,2.3,2.3,40,0.00,CLR,,0.00,WeatherDisplay:10.37,2013-02-09 20:32:00,
2013-02-09 15:37:00,45.5,22.5,30.36,SSE,147,4.0,4.0,40,0.00,CLR,,0.00,WeatherDisplay:10.37,2013-02-09 20:37:00,
2013-02-09 15:42:00,45.9,23.5,30.36,SSE,155,2.3,2.3,41,0.00,CLR,,0.00,WeatherDisplay:10.37,2013-02-09 20:42:00,
2013-02-09 15:47:00,46.4,23.4,30.36,SSE,159,7.0,7.0,40,0.00,CLR,,0.00,WeatherDisplay:10.37,2013-02-09 20:47:00,
2013-02-09 15:52:00,46.2,22.6,30.35,SSE,162,3.5,3.5,39,0.00,CLR,,0.00,WeatherDisplay:10.37,2013-02-09 20:52:00,
2013-02-09 15:57:00,45.6,22.0,30.36,SSE,165,2.3,2.3,39,0.00,CLR,,0.00,WeatherDisplay:10.37,2013-02-09 20:57:00,
2013-02-09 16:02:00,45.4,22.5,30.35,SSE,167,2.3,2.3,40,0.00,CLR,,0.00,WeatherDisplay:10.37,2013-02-09 21:02:00,
2013-02-09 16:07:00,45.3,22.4,30.35,SSE,167,2.3,0.0,40,0.00,CLR,,0.00,WeatherDisplay:10.37,2013-02-09 21:07:00,
2013-02-09 16:12:00,45.4,22.5,30.35,South,169,4.0,4.0,40,0.00,CLR,,0.00,WeatherDisplay:10.37,2013-02-09 21:12:00,
2013-02-09 16:17:00,45.3,21.8,30.35,South,170,2.3,2.3,39,0.00,CLR,,0.00,WeatherDisplay:10.37,2013-02-09 21:17:00,
2013-02-09 16:22:00,45.1,21.6,30.35,South,175,5.0,5.0,39,0.00,CLR,,0.00,WeatherDisplay:10.37,2013-02-09 21:22:00,
2013-02-09 16:27:00,45.4,21.9,30.36,South,175,2.3,2.3,39,0.00,CLR,,0.00,WeatherDisplay:10.37,2013-02-09 21:27:00,
2013-02-09 16:32:00,46.0,21.8,30.35,South,175,1.1,1.1,38,0.00,CLR,,0.00,WeatherDisplay:10.37,2013-02-09 21:32:00,
2013-02-09 16:37:00,46.4,22.1,30.35,South,175,4.0,4.0,38,0.00,CLR,,0.00,WeatherDisplay:10.37,2013-02-09 21:37:00,
2013-02-09 16:42:00,46.5,22.2,30.35,South,171,6.0,6.0,38,0.00,CLR,,0.00,WeatherDisplay:10.37,2013-02-09 21:42:00,
2013-02-09 16:47:00,46.1,21.9,30.34,South,172,2.3,2.3,38,0.00,CLR,,0.00,WeatherDisplay:10.37,2013-02-09 21:47:00,
2013-02-09 16:52:00,45.8,21.6,30.34,South,172,4.0,4.0,38,0.00,CLR,,0.00,WeatherDisplay:10.37,2013-02-09 21:52:00,
2013-02-09 16:57:00,45.8,22.2,30.34,South,172,2.0,2.0,39,0.00,CLR,,0.00,WeatherDisplay:10.37,2013-02-09 21:57:00,
2013-02-09 17:02:00,45.8,22.2,30.34,South,171,1.0,1.0,39,0.00,CLR,,0.00,WeatherDisplay:10.37,2013-02-09 22:02:00,
2013-02-09 17:07:00,45.8,22.2,30.34,South,180,2.3,2.3,39,0.00,CLR,,0.00,WeatherDisplay:10.37,2013-02-09 22:07:00,
2013-02-09 17:12:00,45.8,22.2,30.34,South,181,2.3,2.3,39,0.00,CLR,,0.00,WeatherDisplay:10.37,2013-02-09 22:12:00,
2013-02-09 17:17:00,45.6,22.0,30.34,South,180,4.0,4.0,39,0.00,CLR,,0.00,WeatherDisplay:10.37,2013-02-09 22:17:00,
2013-02-09 17:22:00,45.2,22.3,30.34,South,180,0.0,0.0,40,0.00,CLR,,0.00,WeatherDisplay:10.37,2013-02-09 22:22:00,
2013-02-09 17:27:00,45.0,22.1,30.34,South,180,2.3,2.3,40,0.00,CLR,,0.00,WeatherDisplay:10.37,2013-02-09 22:27:00,
2013-02-09 17:32:00,44.5,22.2,30.33,South,183,2.3,2.3,41,0.00,CLR,,0.00,WeatherDisplay:10.37,2013-02-09 22:32:00,
2013-02-09 17:37:00,44.3,22.6,30.33,South,182,2.3,2.3,42,0.00,CLR,,0.00,WeatherDisplay:10.37,2013-02-09 22:37:00,
2013-02-09 17:42:00,43.7,22.6,30.33,South,183,2.3,2.3,43,0.00,CLR,,0.00,WeatherDisplay:10.37,2013-02-09 22:42:00,
2013-02-09 17:47:00,43.2,22.2,30.33,South,182,4.0,4.0,43,0.00,CLR,,0.00,WeatherDisplay:10.37,2013-02-09 22:47:00,
2013-02-09 17:52:00,42.8,22.4,30.33,South,182,1.1,0.0,44,0.00,CLR,,0.00,WeatherDisplay:10.37,2013-02-09 22:52:00,
2013-02-09 17:57:00,42.5,22.6,30.33,South,182,0.0,0.0,45,0.00,CLR,,0.00,WeatherDisplay:10.37,2013-02-09 22:57:00,
2013-02-09 18:03:00,42.1,22.3,30.33,South,182,1.1,1.1,45,0.00,CLR,,0.00,WeatherDisplay:10.37,2013-02-09 23:03:00,
2013-02-09 18:08:00,41.8,22.5,30.33,South,182,4.0,4.0,46,0.00,CLR,,0.00,WeatherDisplay:10.37,2013-02-09 23:08:00,
2013-02-09 18:13:00,41.4,22.7,30.33,South,182,1.1,0.0,47,0.00,CLR,,0.00,WeatherDisplay:10.37,2013-02-09 23:13:00,
2013-02-09 18:18:00,41.1,22.4,30.33,South,182,0.0,0.0,47,0.00,CLR,,0.00,WeatherDisplay:10.37,2013-02-09 23:18:00,
2013-02-09 18:24:00,40.8,22.6,30.33,South,182,2.3,2.3,48,0.00,CLR,,0.00,WeatherDisplay:10.37,2013-02-09 23:24:00,
2013-02-09 18:29:00,40.6,22.4,30.33,South,182,2.3,2.3,48,0.00,CLR,,0.00,WeatherDisplay:10.37,2013-02-09 23:29:00,
2013-02-09 18:34:00,40.4,22.7,30.33,South,182,2.0,0.0,49,0.00,CLR,,0.00,WeatherDisplay:10.37,2013-02-09 23:34:00,
2013-02-09 18:39:00,40.2,23.0,30.33,South,182,1.1,1.1,50,0.00,CLR,,0.00,WeatherDisplay:10.37,2013-02-09 23:39:00,
2013-02-09 18:44:00,40.1,22.9,30.33,South,182,0.0,0.0,50,0.00,CLR,,0.00,WeatherDisplay:10.37,2013-02-09 23:44:00,
2013-02-09 18:49:00,39.9,23.2,30.33,South,182,1.1,1.1,51,0.00,CLR,,0.00,WeatherDisplay:10.37,2013-02-09 23:49:00,
2013-02-09 18:54:00,39.7,23.0,30.33,South,182,4.0,4.0,51,0.00,CLR,,0.00,WeatherDisplay:10.37,2013-02-09 23:54:00,
2013-02-09 18:59:00,39.7,23.5,30.32,South,182,1.1,1.1,52,0.00,CLR,,0.00,WeatherDisplay:10.37,2013-02-09 23:59:00,
2013-02-09 19:04:00,39.5,23.8,30.32,South,182,4.0,4.0,53,0.00,CLR,,0.00,WeatherDisplay:10.37,2013-02-10 00:04:00,
2013-02-09 19:09:00,39.5,23.8,30.32,South,182,1.1,0.0,53,0.00,CLR,,0.00,WeatherDisplay:10.37,2013-02-10 00:09:00,
2013-02-09 19:14:00,39.3,23.6,30.32,South,182,4.0,4.0,53,0.00,CLR,,0.00,WeatherDisplay:10.37,2013-02-10 00:14:00,
2013-02-09 19:19:00,39.2,23.9,30.32,South,182,0.0,0.0,54,0.00,CLR,,0.00,WeatherDisplay:10.37,2013-02-10 00:19:00,
2013-02-09 19:24:00,39.1,23.8,30.32,South,182,2.3,2.3,54,0.00,CLR,,0.00,WeatherDisplay:10.37,2013-02-10 00:24:00,
2013-02-09 19:29:00,38.9,23.7,30.32,South,182,4.0,4.0,54,0.00,CLR,,0.00,WeatherDisplay:10.37,2013-02-10 00:29:00,
2013-02-09 19:34:00,38.9,23.7,30.31,South,182,1.1,1.1,54,0.00,CLR,,0.00,WeatherDisplay:10.37,2013-02-10 00:34:00,
2013-02-09 19:39:00,38.8,23.1,30.31,South,180,4.0,4.0,53,0.00,CLR,,0.00,WeatherDisplay:10.37,2013-02-10 00:39:00,
2013-02-09 19:44:00,38.7,23.0,30.31,South,180,2.3,2.3,53,0.00,CLR,,0.00,WeatherDisplay:10.37,2013-02-10 00:44:00,
2013-02-09 19:49:00,38.7,23.0,30.31,South,179,2.3,2.3,53,0.00,CLR,,0.00,WeatherDisplay:10.37,2013-02-10 00:49:00,
2013-02-09 19:54:00,38.6,22.9,30.31,South,180,4.0,4.0,53,0.00,CLR,,0.00,WeatherDisplay:10.37,2013-02-10 00:54:00,
2013-02-09 19:59:00,38.4,22.7,30.31,South,179,2.0,2.0,53,0.00,CLR,,0.00,WeatherDisplay:10.37,2013-02-10 00:59:00,
2013-02-09 20:04:00,38.4,22.3,30.30,South,179,2.3,2.3,52,0.00,CLR,,0.00,WeatherDisplay:10.37,2013-02-10 01:04:00,
2013-02-09 20:09:00,38.3,22.2,30.30,South,181,6.0,6.0,52,0.00,CLR,,0.00,WeatherDisplay:10.37,2013-02-10 01:09:00,
2013-02-09 20:14:00,38.4,22.3,30.30,SSE,164,6.0,6.0,52,0.00,CLR,,0.00,WeatherDisplay:10.37,2013-02-10 01:14:00,
2013-02-09 20:19:00,38.4,22.3,30.30,SSE,164,2.3,2.3,52,0.00,CLR,,0.00,WeatherDisplay:10.37,2013-02-10 01:19:00,
2013-02-09 20:24:00,38.3,21.7,30.30,SSE,166,5.0,5.0,51,0.00,CLR,,0.00,WeatherDisplay:10.37,2013-02-10 01:24:00,
2013-02-09 20:29:00,38.3,21.7,30.29,SSE,164,3.5,3.5,51,0.00,CLR,,0.00,WeatherDisplay:10.37,2013-02-10 01:29:00,
2013-02-09 20:34:00,38.2,21.6,30.29,SSE,166,5.0,5.0,51,0.00,CLR,,0.00,WeatherDisplay:10.37,2013-02-10 01:34:00,
2013-02-09 20:39:00,38.0,21.5,30.30,SSE,166,4.0,4.0,51,0.00,CLR,,0.00,WeatherDisplay:10.37,2013-02-10 01:39:00,
2013-02-09 20:44:00,37.9,21.4,30.29,SSE,165,4.6,4.6,51,0.00,CLR,,0.00,WeatherDisplay:10.37,2013-02-10 01:44:00,
2013-02-09 20:49:00,37.8,21.3,30.30,SSE,165,0.0,0.0,51,0.00,CLR,,0.00,WeatherDisplay:10.37,2013-02-10 01:49:00,
2013-02-09 20:55:00,37.8,20.8,30.29,SSE,167,5.0,5.0,50,0.00,CLR,,0.00,WeatherDisplay:10.37,2013-02-10 01:55:00,
2013-02-09 21:00:00,37.9,20.9,30.29,SSE,167,4.0,4.0,50,0.00,CLR,,0.00,WeatherDisplay:10.37,2013-02-10 02:00:00,
2013-02-09 21:05:00,37.9,20.9,30.29,South,178,6.9,6.9,50,0.00,CLR,,0.00,WeatherDisplay:10.37,2013-02-10 02:05:00,
2013-02-09 21:10:00,37.9,20.9,30.28,South,181,2.0,2.0,50,0.00,CLR,,0.00,WeatherDisplay:10.37,2013-02-10 02:10:00,
2013-02-09 21:15:00,37.9,20.4,30.28,South,191,1.1,1.1,49,0.00,CLR,,0.00,WeatherDisplay:10.37,2013-02-10 02:15:00,
2013-02-09 21:20:00,37.9,20.4,30.28,South,191,7.0,7.0,49,0.00,CLR,,0.00,WeatherDisplay:10.37,2013-02-10 02:20:00,
2013-02-09 21:25:00,37.9,20.4,30.28,South,189,5.0,5.0,49,0.00,CLR,,0.00,WeatherDisplay:10.37,2013-02-10 02:25:00,
2013-02-09 21:30:00,37.8,20.3,30.28,South,189,2.3,2.3,49,0.00,CLR,,0.00,WeatherDisplay:10.37,2013-02-10 02:30:00,
2013-02-09 21:35:00,37.7,20.2,30.28,South,187,2.3,2.3,49,0.00,CLR,,0.00,WeatherDisplay:10.37,2013-02-10 02:35:00,
2013-02-09 21:40:00,37.7,20.2,30.28,South,186,6.0,6.0,49,0.00,CLR,,0.00,WeatherDisplay:10.37,2013-02-10 02:40:00,
2013-02-09 21:45:00,37.7,20.2,30.28,South,185,2.3,2.3,49,0.00,CLR,,0.00,WeatherDisplay:10.37,2013-02-10 02:45:00,
2013-02-09 21:50:00,37.6,20.1,30.28,South,185,7.0,7.0,49,0.00,CLR,,0.00,WeatherDisplay:10.37,2013-02-10 02:50:00,
2013-02-09 21:55:00,37.5,20.1,30.28,South,185,4.0,4.0,49,0.00,CLR,,0.00,WeatherDisplay:10.37,2013-02-10 02:55:00,
2013-02-09 22:00:00,37.4,20.0,30.28,South,184,5.0,5.0,49,0.00,CLR,,0.00,WeatherDisplay:10.37,2013-02-10 03:00:00,
2013-02-09 22:05:00,37.4,20.0,30.27,South,181,7.0,7.0,49,0.00,CLR,,0.00,WeatherDisplay:10.37,2013-02-10 03:05:00,
2013-02-09 22:10:00,37.4,20.0,30.27,South,180,2.3,2.3,49,0.00,CLR,,0.00,WeatherDisplay:10.37,2013-02-10 03:10:00,
2013-02-09 22:15:00,37.2,19.8,30.27,South,181,2.3,2.3,49,0.00,CLR,,0.00,WeatherDisplay:10.37,2013-02-10 03:15:00,
2013-02-09 22:20:00,37.2,20.2,30.27,South,181,4.0,4.0,50,0.00,CLR,,0.00,WeatherDisplay:10.37,2013-02-10 03:20:00,
2013-02-09 22:25:00,37.1,19.7,30.27,South,178,2.3,2.3,49,0.00,CLR,,0.00,WeatherDisplay:10.37,2013-02-10 03:25:00,
2013-02-09 22:30:00,37.1,20.2,30.27,SSE,168,2.0,2.0,50,0.00,CLR,,0.00,WeatherDisplay:10.37,2013-02-10 03:30:00,
2013-02-09 22:35:00,37.0,19.6,30.27,South,169,1.1,1.1,49,0.00,CLR,,0.00,WeatherDisplay:10.37,2013-02-10 03:35:00,
2013-02-09 22:40:00,37.0,19.6,30.27,South,170,4.0,4.0,49,0.00,CLR,,0.00,WeatherDisplay:10.37,2013-02-10 03:40:00,
2013-02-09 22:45:00,37.0,19.6,30.26,South,170,2.3,2.3,49,0.00,CLR,,0.00,WeatherDisplay:10.37,2013-02-10 03:45:00,
2013-02-09 22:50:00,37.0,19.6,30.26,SSE,151,2.0,2.0,49,0.00,CLR,,0.00,WeatherDisplay:10.37,2013-02-10 03:50:00,
2013-02-09 22:55:00,36.9,20.0,30.26,SSE,166,4.0,4.0,50,0.00,CLR,,0.00,WeatherDisplay:10.37,2013-02-10 03:55:00,
2013-02-09 23:00:00,37.0,19.6,30.26,South,170,1.1,1.1,49,0.00,CLR,,0.00,WeatherDisplay:10.37,2013-02-10 04:00:00,
2013-02-09 23:05:00,36.9,20.0,30.26,South,173,3.5,0.0,50,0.00,CLR,,0.00,WeatherDisplay:10.37,2013-02-10 04:05:00,
2013-02-09 23:10:00,36.8,19.9,30.26,South,172,1.1,1.1,50,0.00,CLR,,0.00,WeatherDisplay:10.37,2013-02-10 04:10:00,
2013-02-09 23:15:00,36.7,19.8,30.27,South,174,4.0,4.0,50,0.00,CLR,,0.00,WeatherDisplay:10.37,2013-02-10 04:15:00,
2013-02-09 23:20:00,36.6,19.7,30.26,South,174,1.1,0.0,50,0.00,CLR,,0.00,WeatherDisplay:10.37,2013-02-10 04:20:00,
2013-02-09 23:25:00,36.6,19.7,30.26,South,174,2.3,0.0,50,0.00,CLR,,0.00,WeatherDisplay:10.37,2013-02-10 04:25:00,
2013-02-09 23:30:00,36.5,19.6,30.26,South,174,1.1,0.0,50,0.00,CLR,,0.00,WeatherDisplay:10.37,2013-02-10 04:30:00,
2013-02-09 23:35:00,36.3,19.4,30.27,South,174,1.1,1.1,50,0.00,CLR,,0.00,WeatherDisplay:10.37,2013-02-10 04:35:00,
2013-02-09 23:40:00,36.3,19.4,30.27,South,174,2.3,2.3,50,0.00,CLR,,0.00,WeatherDisplay:10.37,2013-02-10 04:40:00,
2013-02-09 23:45:00,36.2,19.3,30.26,South,174,4.0,4.0,50,0.00,CLR,,0.00,WeatherDisplay:10.37,2013-02-10 04:45:00,
2013-02-09 23:50:00,36.1,19.7,30.26,South,174,2.3,2.3,51,0.00,CLR,,0.00,WeatherDisplay:10.37,2013-02-10 04:50:00,
2013-02-09 23:55:00,36.1,19.7,30.25,South,174,1.1,1.1,51,0.00,CLR,,0.00,WeatherDisplay:10.37,2013-02-10 04:55:00,